Time;durP1;ratioP1;P1;durP2;ratioP2;P2;SDS_P1;SDS_P2;PMS_P1;PMS_P2;Temp;Humidity;BMP_temperature;BMP_pressure;BME280_temperature;BME280_humidity;BME280_pressure;Samples;Min_cycle;Max_cycle;Signal;HPM_P1;HPM_P2
2022/12/29 00:02:10;;;;;;;7.97;6.53;;;10.90;99.90;;;;;;5027538;28;20053;-66
2022/12/29 00:04:35;;;;;;;8.18;6.35;;;10.90;99.90;;;;;;5019126;28;20177;-65
2022/12/29 00:07:04;;;;;;;6.50;5.65;;;10.90;99.90;;;;;;5030864;28;20025;-65
2022/12/29 00:09:30;;;;;;;8.70;5.95;;;10.90;99.90;;;;;;5031109;28;20136;-66
2022/12/29 00:11:56;;;;;;;7.28;5.97;;;10.80;99.90;;;;;;5019446;28;20051;-65
2022/12/29 00:17:06;;;;;;;7.00;6.07;;;10.90;99.90;;;;;;5011495;28;20081;-67
2022/12/29 00:36:09;;;;;;;8.18;6.75;;;10.80;99.90;;;;;;5017370;28;20188;-67
2022/12/29 00:44:07;;;;;;;7.40;4.88;;;10.90;99.90;;;;;;5026683;28;20080;-64
2022/12/29 00:46:42;;;;;;;9.30;5.47;;;11.00;99.90;;;;;;5016253;28;20030;-66
2022/12/29 00:51:54;;;;;;;6.55;4.82;;;11.00;99.90;;;;;;5030230;28;20063;-64
2022/12/29 00:54:20;;;;;;;6.80;5.35;;;11.00;99.90;;;;;;5002685;28;20052;-65
2022/12/29 00:56:50;;;;;;;7.07;5.18;;;11.00;99.90;;;;;;5011129;28;20042;-65
2022/12/29 00:59:17;;;;;;;7.78;5.22;;;11.00;99.90;;;;;;5029879;28;20404;-65
2022/12/29 01:01:43;;;;;;;6.03;5.10;;;11.10;99.90;;;;;;5024259;28;20038;-64
2022/12/29 01:04:09;;;;;;;5.80;4.63;;;11.10;99.90;;;;;;5029290;28;20049;-65
2022/12/29 01:06:37;;;;;;;6.60;4.95;;;11.10;99.90;;;;;;5012845;28;20061;-64
2022/12/29 01:11:48;;;;;;;6.18;4.93;;;11.20;99.90;;;;;;5026520;28;20133;-65
2022/12/29 01:14:14;;;;;;;7.13;4.78;;;11.30;99.90;;;;;;5029802;28;20313;-65
2022/12/29 01:16:39;;;;;;;5.70;4.78;;;11.30;99.90;;;;;;5012260;28;20084;-66
2022/12/29 01:19:05;;;;;;;6.43;4.50;;;11.30;99.90;;;;;;5015251;28;20112;-65
2022/12/29 01:21:32;;;;;;;6.47;4.53;;;11.30;99.90;;;;;;5026578;28;20491;-65
2022/12/29 01:23:57;;;;;;;6.47;4.93;;;11.30;99.90;;;;;;5030320;28;20084;-64
2022/12/29 01:26:23;;;;;;;6.38;4.60;;;11.30;99.90;;;;;;5016353;28;20049;-64
2022/12/29 01:28:48;;;;;;;6.72;4.40;;;11.30;99.90;;;;;;5019760;28;20033;-65
2022/12/29 01:31:15;;;;;;;9.52;4.15;;;11.30;99.90;;;;;;5028082;28;20423;-67
2022/12/29 01:33:41;;;;;;;5.75;4.22;;;11.40;99.90;;;;;;5030600;28;20069;-64
2022/12/29 01:36:10;;;;;;;6.13;4.18;;;11.40;99.90;;;;;;5016070;28;20403;-64
2022/12/29 01:38:36;;;;;;;5.95;4.03;;;11.40;99.90;;;;;;5030901;28;20053;-65
2022/12/29 01:41:03;;;;;;;5.22;4.43;;;11.40;99.90;;;;;;5033612;28;20034;-66
2022/12/29 01:43:39;;;;;;;6.88;4.85;;;11.50;99.90;;;;;;5024897;28;20042;-64
2022/12/29 01:46:15;;;;;;;5.13;3.70;;;11.40;99.90;;;;;;5021134;28;20040;-65
2022/12/29 01:48:42;;;;;;;6.97;4.15;;;11.50;99.90;;;;;;5033227;28;20041;-65
2022/12/29 01:51:08;;;;;;;5.30;4.05;;;11.50;99.90;;;;;;5023349;28;20034;-65
2022/12/29 01:53:35;;;;;;;5.28;4.13;;;11.60;99.90;;;;;;5029500;28;20037;-64
2022/12/29 01:56:06;;;;;;;5.18;4.10;;;11.60;99.90;;;;;;5033203;28;20091;-66
2022/12/29 01:58:37;;;;;;;5.65;4.05;;;11.50;99.90;;;;;;5033605;28;20056;-65
2022/12/29 02:01:04;;;;;;;4.47;3.42;;;11.50;99.90;;;;;;5025120;28;20171;-65
2022/12/29 02:03:32;;;;;;;4.40;3.30;;;11.60;99.90;;;;;;5026030;28;20103;-64
2022/12/29 02:06:12;;;;;;;5.43;3.83;;;11.60;99.90;;;;;;5032974;28;20041;-66
2022/12/29 02:08:39;;;;;;;7.25;4.05;;;11.50;99.90;;;;;;5019972;28;20048;-66
2022/12/29 02:11:06;;;;;;;5.57;4.00;;;11.50;99.90;;;;;;5029492;28;20037;-65
2022/12/29 02:13:32;;;;;;;5.70;3.67;;;11.50;99.90;;;;;;5033167;28;20049;-64
2022/12/29 02:16:35;;;;;;;5.88;4.03;;;11.50;99.90;;;;;;5028287;28;20041;-65
2022/12/29 02:19:06;;;;;;;5.07;3.50;;;11.40;99.90;;;;;;5025532;28;20038;-65
2022/12/29 02:21:55;;;;;;;5.20;3.78;;;11.40;99.90;;;;;;5032863;28;20065;-64
2022/12/29 02:24:32;;;;;;;4.95;3.90;;;11.50;99.90;;;;;;5017460;28;20092;-66
2022/12/29 02:27:31;;;;;;;5.85;3.88;;;11.40;99.90;;;;;;5031192;28;20037;-65
2022/12/29 02:30:03;;;;;;;6.05;4.20;;;11.40;99.90;;;;;;5033037;28;20047;-64
2022/12/29 02:32:58;;;;;;;5.28;4.00;;;11.30;99.90;;;;;;5023153;28;20053;-65
2022/12/29 02:35:35;;;;;;;5.30;3.80;;;11.30;99.90;;;;;;5028399;28;20049;-64
2022/12/29 02:38:25;;;;;;;5.68;3.42;;;11.20;99.90;;;;;;5025533;28;20077;-64
2022/12/29 02:41:05;;;;;;;4.18;3.55;;;11.10;99.90;;;;;;5017130;28;20151;-65
2022/12/29 02:43:56;;;;;;;7.75;3.75;;;11.00;99.90;;;;;;5028793;28;20124;-64
2022/12/29 02:46:33;;;;;;;5.55;4.18;;;10.90;99.90;;;;;;5031726;28;20491;-65
2022/12/29 02:49:32;;;;;;;5.82;4.25;;;10.90;99.90;;;;;;5029958;28;20033;-65
2022/12/29 02:52:06;;;;;;;5.85;4.43;;;10.80;99.90;;;;;;5017587;28;20077;-64
2022/12/29 02:54:41;;;;;;;4.70;3.53;;;10.80;99.90;;;;;;5031801;28;20037;-66
2022/12/29 02:57:22;;;;;;;5.20;3.78;;;10.80;99.90;;;;;;5032599;28;20040;-64
2022/12/29 03:00:01;;;;;;;5.03;4.10;;;10.70;99.90;;;;;;5022456;28;20041;-66
2022/12/29 03:02:38;;;;;;;6.15;4.13;;;10.80;99.90;;;;;;5031447;28;20408;-65
2022/12/29 03:05:41;;;;;;;6.57;4.20;;;10.80;99.90;;;;;;5032195;28;20065;-65
2022/12/29 03:08:38;;;;;;;7.35;4.43;;;10.80;99.90;;;;;;5023575;28;20041;-64
2022/12/29 03:11:06;;;;;;;5.72;3.70;;;10.80;99.90;;;;;;5024901;28;20037;-64
2022/12/29 03:16:51;;;;;;;5.60;3.92;;;10.90;99.90;;;;;;5021370;28;20056;-65
2022/12/29 03:19:27;;;;;;;5.22;3.30;;;10.80;99.90;;;;;;5031644;28;20503;-65
2022/12/29 03:22:27;;;;;;;5.90;3.65;;;10.80;99.90;;;;;;5031725;28;20133;-66
2022/12/29 03:25:11;;;;;;;4.57;3.22;;;10.70;99.90;;;;;;5027620;28;20518;-65
2022/12/29 03:27:42;;;;;;;4.28;3.13;;;10.80;99.90;;;;;;5029149;28;20081;-67
2022/12/29 03:30:08;;;;;;;4.03;3.03;;;10.80;99.90;;;;;;5031837;28;20362;-65
2022/12/29 03:32:50;;;;;;;5.40;2.85;;;10.90;99.90;;;;;;5024311;28;20053;-65
2022/12/29 03:35:17;;;;;;;;;;;11.00;99.90;;;;;;5028787;28;20069;-64
2022/12/29 03:38:16;;;;;;;3.50;2.47;;;11.00;99.90;;;;;;5032837;28;19917;-64
2022/12/29 03:40:45;;;;;;;4.65;2.63;;;11.00;99.90;;;;;;5006656;28;20439;-66
2022/12/29 03:43:12;;;;;;;3.33;2.30;;;11.10;99.90;;;;;;5026158;28;20034;-64
2022/12/29 03:45:38;;;;;;;3.65;2.33;;;11.20;99.90;;;;;;5036724;28;20463;-65
2022/12/29 03:48:04;;;;;;;3.72;2.17;;;11.20;99.90;;;;;;5036543;28;20057;-65
2022/12/29 03:50:29;;;;;;;4.32;2.08;;;11.20;99.90;;;;;;5027848;28;20075;-67
2022/12/29 03:52:55;;;;;;;3.75;1.98;;;11.30;99.90;;;;;;5031733;28;20045;-64
2022/12/29 03:55:21;;;;;;;3.03;2.28;;;11.30;99.90;;;;;;5027188;28;20079;-65
2022/12/29 03:57:47;;;;;;;4.50;2.13;;;11.30;99.90;;;;;;5020432;28;20087;-64
2022/12/29 04:00:13;;;;;;;2.80;1.95;;;11.20;99.90;;;;;;5031858;28;20033;-64
2022/12/29 04:02:38;;;;;;;4.57;2.17;;;11.20;99.90;;;;;;5031807;28;20064;-65
2022/12/29 04:05:05;;;;;;;2.97;1.80;;;11.20;99.90;;;;;;5024746;28;20450;-66
2022/12/29 04:07:30;;;;;;;4.70;1.88;;;11.20;99.90;;;;;;5024761;28;20033;-65
2022/12/29 04:09:56;;;;;;;4.03;1.92;;;11.20;99.90;;;;;;5032120;28;20163;-64
2022/12/29 04:12:21;;;;;;;4.18;1.77;;;11.30;99.90;;;;;;5008709;28;20644;-64
2022/12/29 04:14:47;;;;;;;5.47;1.83;;;11.30;99.90;;;;;;5030866;28;20052;-65
2022/12/29 04:17:12;;;;;;;4.20;1.90;;;11.20;99.90;;;;;;5031462;28;20073;-66
2022/12/29 04:19:38;;;;;;;3.78;1.95;;;11.20;99.90;;;;;;5028754;28;20041;-65
2022/12/29 04:22:04;;;;;;;4.57;1.67;;;11.20;99.90;;;;;;5022977;28;20128;-64
2022/12/29 04:24:29;;;;;;;4.30;1.70;;;11.20;99.90;;;;;;5031096;28;20036;-64
2022/12/29 04:26:55;;;;;;;3.22;1.77;;;11.30;99.90;;;;;;5031810;28;20244;-65
2022/12/29 04:29:21;;;;;;;3.38;1.55;;;11.20;99.90;;;;;;5024638;28;20105;-64
2022/12/29 04:31:46;;;;;;;2.97;1.67;;;11.20;99.90;;;;;;5020544;28;20155;-65
2022/12/29 04:34:12;;;;;;;3.35;1.70;;;11.20;99.90;;;;;;5031136;28;20080;-64
2022/12/29 04:36:39;;;;;;;3.28;2.05;;;11.10;99.90;;;;;;5028880;28;20388;-65
2022/12/29 04:39:05;;;;;;;3.63;1.67;;;11.10;99.90;;;;;;5022971;28;20052;-66
2022/12/29 04:41:31;;;;;;;4.63;1.83;;;11.10;99.90;;;;;;5030716;28;20095;-65
2022/12/29 04:43:57;;;;;;;4.43;1.90;;;11.20;99.90;;;;;;5031581;28;20033;-64
2022/12/29 04:46:22;;;;;;;2.17;1.88;;;11.20;99.90;;;;;;5028060;28;20025;-65
2022/12/29 04:48:48;;;;;;;2.90;1.77;;;11.10;99.90;;;;;;5015948;28;20033;-64
2022/12/29 04:51:14;;;;;;;3.83;1.63;;;11.10;99.90;;;;;;5034057;28;20039;-65
2022/12/29 04:53:40;;;;;;;5.22;2.17;;;11.00;99.90;;;;;;5051525;28;20033;-65
2022/12/29 04:56:06;;;;;;;4.03;2.13;;;11.00;99.90;;;;;;5022544;28;20441;-65
2022/12/29 04:58:31;;;;;;;3.72;1.80;;;11.00;99.90;;;;;;5029744;28;20488;-66
2022/12/29 05:00:57;;;;;;;4.63;2.00;;;11.00;99.90;;;;;;5021713;28;20163;-64
2022/12/29 05:03:23;;;;;;;3.65;2.08;;;11.00;99.90;;;;;;5034445;28;20029;-64
2022/12/29 05:05:48;;;;;;;2.75;2.00;;;11.10;99.90;;;;;;5034730;28;20036;-64
2022/12/29 05:08:14;;;;;;;3.63;2.30;;;11.10;99.90;;;;;;5030593;28;20034;-66
2022/12/29 05:10:39;;;;;;;4.15;2.30;;;11.20;99.90;;;;;;5017091;28;20404;-66
2022/12/29 05:13:05;;;;;;;5.00;2.20;;;11.20;99.90;;;;;;5028811;28;20118;-64
2022/12/29 05:15:31;;;;;;;4.20;2.33;;;11.10;99.90;;;;;;5045813;28;20040;-65
2022/12/29 05:17:56;;;;;;;4.72;2.20;;;11.20;99.90;;;;;;5034865;28;20073;-65
2022/12/29 05:20:22;;;;;;;5.18;2.10;;;11.10;99.90;;;;;;5021454;28;20041;-66
2022/12/29 05:22:47;;;;;;;7.45;2.20;;;11.20;99.90;;;;;;5036413;28;20033;-64
2022/12/29 05:25:13;;;;;;;4.78;2.35;;;11.20;99.90;;;;;;5039869;28;20037;-65
2022/12/29 05:27:38;;;;;;;8.93;2.40;;;11.10;99.90;;;;;;5031610;28;20041;-64
2022/12/29 05:30:04;;;;;;;3.63;2.10;;;11.10;99.90;;;;;;5022311;28;20407;-66
2022/12/29 05:32:30;;;;;;;5.03;2.55;;;11.00;99.90;;;;;;5034268;28;20045;-66
2022/12/29 05:34:56;;;;;;;5.28;2.17;;;11.00;99.90;;;;;;5034094;28;20041;-64
2022/12/29 05:37:21;;;;;;;3.20;2.10;;;11.00;99.90;;;;;;5022057;28;20034;-65
2022/12/29 05:39:47;;;;;;;5.25;2.25;;;11.10;99.90;;;;;;5021623;28;20147;-64
2022/12/29 05:42:12;;;;;;;5.55;1.88;;;11.00;99.90;;;;;;5031085;28;20068;-66
2022/12/29 05:44:38;;;;;;;6.32;2.50;;;11.00;99.90;;;;;;5043109;28;20037;-64
2022/12/29 05:47:05;;;;;;;3.85;2.10;;;11.00;99.90;;;;;;5028666;28;20128;-66
2022/12/29 05:49:30;;;;;;;4.05;1.90;;;10.90;99.90;;;;;;5035109;28;20575;-64
2022/12/29 05:51:56;;;;;;;4.65;2.13;;;10.90;99.90;;;;;;5016078;28;20055;-64
2022/12/29 05:54:21;;;;;;;4.00;2.22;;;10.90;99.90;;;;;;5028317;28;20041;-64
2022/12/29 05:56:47;;;;;;;4.38;2.00;;;10.90;99.90;;;;;;5025960;28;20037;-65
2022/12/29 05:59:13;;;;;;;8.57;2.08;;;10.90;99.90;;;;;;5033693;28;20092;-64
2022/12/29 06:01:38;;;;;;;6.13;1.95;;;10.90;99.90;;;;;;5031463;28;20381;-64
2022/12/29 06:04:04;;;;;;;4.45;1.80;;;10.90;99.90;;;;;;5032591;28;20040;-64
2022/12/29 06:06:29;;;;;;;4.68;1.92;;;10.90;99.90;;;;;;5042623;28;20490;-66
2022/12/29 06:08:55;;;;;;;5.95;1.92;;;10.80;99.90;;;;;;5042806;28;20034;-69
2022/12/29 06:11:20;;;;;;;5.38;1.88;;;10.80;99.90;;;;;;5014271;28;20042;-64
2022/12/29 06:13:46;;;;;;;5.10;1.45;;;10.90;99.90;;;;;;5032227;28;20427;-64
2022/12/29 06:16:12;;;;;;;5.10;1.77;;;10.90;99.90;;;;;;5031750;28;20045;-65
2022/12/29 06:18:37;;;;;;;6.57;2.10;;;10.90;99.90;;;;;;5033089;28;20041;-64
2022/12/29 06:21:04;;;;;;;4.45;1.60;;;10.80;99.90;;;;;;5032304;28;20048;-65
2022/12/29 06:23:30;;;;;;;4.70;1.40;;;10.80;99.90;;;;;;5033793;28;20045;-65
2022/12/29 06:25:56;;;;;;;4.90;1.45;;;10.80;99.90;;;;;;5030351;28;20095;-66
2022/12/29 06:28:21;;;;;;;4.32;1.65;;;10.80;99.90;;;;;;5032802;28;20113;-64
2022/12/29 06:30:48;;;;;;;4.78;1.58;;;10.80;99.90;;;;;;5033775;28;20041;-64
2022/12/29 06:33:14;;;;;;;6.43;1.65;;;10.80;99.90;;;;;;5033053;28;20056;-64
2022/12/29 06:35:41;;;;;;;8.43;1.83;;;10.80;99.90;;;;;;5015033;28;20045;-66
2022/12/29 06:38:06;;;;;;;8.73;1.83;;;10.80;99.90;;;;;;5030008;28;20168;-65
2022/12/29 06:40:33;;;;;;;3.45;1.50;;;10.80;99.90;;;;;;5033335;28;20120;-66
2022/12/29 06:42:58;;;;;;;3.42;1.65;;;10.70;99.90;;;;;;5040017;28;20038;-66
2022/12/29 06:45:24;;;;;;;10.20;1.85;;;10.70;99.90;;;;;;5031519;28;20060;-64
2022/12/29 06:47:49;;;;;;;5.78;1.77;;;10.80;99.90;;;;;;5049980;28;20032;-64
2022/12/29 06:50:15;;;;;;;8.65;1.80;;;10.70;99.90;;;;;;5053096;28;20454;-64
2022/12/29 06:52:41;;;;;;;9.13;1.70;;;10.70;99.90;;;;;;5023093;28;20496;-64
2022/12/29 06:55:07;;;;;;;7.50;1.77;;;10.60;99.90;;;;;;5034195;28;20029;-66
2022/12/29 06:57:32;;;;;;;9.40;1.70;;;10.60;99.90;;;;;;5050776;28;20045;-64
2022/12/29 06:59:58;;;;;;;8.00;2.30;;;10.50;99.90;;;;;;5053182;28;20300;-64
2022/12/29 07:02:25;;;;;;;11.63;2.25;;;10.50;99.90;;;;;;5023220;28;20046;-65
2022/12/29 07:04:52;;;;;;;8.25;2.10;;;10.60;99.90;;;;;;5026093;28;20111;-64
2022/12/29 07:07:19;;;;;;;9.32;1.67;;;10.50;99.90;;;;;;5048286;28;20040;-65
2022/12/29 07:09:45;;;;;;;7.70;1.55;;;10.50;99.90;;;;;;5030791;28;20515;-64
2022/12/29 07:12:11;;;;;;;11.07;1.65;;;10.50;99.90;;;;;;5043961;28;20476;-65
2022/12/29 07:14:36;;;;;;;9.90;1.80;;;10.40;99.90;;;;;;5052513;28;20081;-64
2022/12/29 07:17:05;;;;;;;8.15;2.00;;;10.30;99.90;;;;;;5036595;28;20407;-64
2022/12/29 07:19:31;;;;;;;9.15;2.53;;;10.40;99.90;;;;;;5031814;28;20041;-64
2022/12/29 07:21:56;;;;;;;9.93;2.20;;;10.30;99.90;;;;;;5031695;28;20049;-64
2022/12/29 07:24:22;;;;;;;8.80;1.70;;;10.30;99.90;;;;;;5027029;28;20385;-64
2022/12/29 07:26:47;;;;;;;9.45;2.00;;;10.40;99.90;;;;;;5020693;28;20042;-65
2022/12/29 07:29:13;;;;;;;8.80;1.98;;;10.40;99.90;;;;;;5031999;28;20025;-65
2022/12/29 07:31:39;;;;;;;7.05;1.77;;;10.40;99.90;;;;;;5029753;28;20572;-68
2022/12/29 07:34:04;;;;;;;9.75;1.90;;;10.40;99.90;;;;;;5020612;28;20069;-64
2022/12/29 07:36:30;;;;;;;6.75;1.85;;;10.40;99.90;;;;;;5025283;28;20408;-65
2022/12/29 07:38:56;;;;;;;12.07;1.90;;;10.40;99.90;;;;;;5032425;28;20108;-65
2022/12/29 07:41:21;;;;;;;7.30;2.28;;;10.50;99.90;;;;;;5020513;28;20520;-64
2022/12/29 07:43:48;;;;;;;9.98;2.03;;;10.50;99.90;;;;;;5018212;28;20570;-64
2022/12/29 07:46:14;;;;;;;7.88;1.85;;;10.50;99.90;;;;;;5031964;28;20033;-67
2022/12/29 07:48:40;;;;;;;7.78;1.90;;;10.50;99.90;;;;;;5032391;28;20044;-64
2022/12/29 07:51:06;;;;;;;7.20;2.08;;;10.40;99.90;;;;;;5027173;28;20422;-66
2022/12/29 07:53:32;;;;;;;7.93;1.92;;;10.50;99.90;;;;;;5028838;28;20389;-64
2022/12/29 07:55:57;;;;;;;9.25;2.17;;;10.50;99.90;;;;;;5046032;28;20044;-64
2022/12/29 07:58:23;;;;;;;7.03;2.00;;;10.50;99.90;;;;;;5036508;28;20033;-64
2022/12/29 08:00:53;;;;;;;6.40;1.88;;;10.40;99.90;;;;;;5033772;28;20035;-65
2022/12/29 08:03:19;;;;;;;9.50;2.10;;;10.40;99.90;;;;;;5051784;28;20056;-64
2022/12/29 08:05:45;;;;;;;12.93;2.22;;;10.40;99.90;;;;;;5043281;28;20663;-65
2022/12/29 08:08:10;;;;;;;9.13;2.30;;;10.40;99.90;;;;;;5019972;28;20034;-65
2022/12/29 08:10:36;;;;;;;8.48;2.17;;;10.30;99.90;;;;;;5030526;28;20291;-64
2022/12/29 08:13:01;;;;;;;6.90;2.20;;;10.40;99.90;;;;;;5051588;28;20502;-65
2022/12/29 08:15:27;;;;;;;7.88;2.10;;;10.30;99.90;;;;;;5033418;28;20044;-67
2022/12/29 08:17:52;;;;;;;8.43;2.30;;;10.30;99.90;;;;;;5031203;28;20038;-64
2022/12/29 08:20:18;;;;;;;5.93;1.80;;;10.30;99.90;;;;;;5031667;28;20088;-67
2022/12/29 08:22:43;;;;;;;8.57;2.60;;;10.30;99.90;;;;;;5022703;28;20038;-66
2022/12/29 08:25:09;;;;;;;9.35;2.13;;;10.30;99.90;;;;;;5022575;28;20030;-65
2022/12/29 08:27:35;;;;;;;6.40;2.20;;;10.30;99.90;;;;;;5037375;28;20768;-66
2022/12/29 08:30:00;;;;;;;6.63;2.00;;;10.30;99.90;;;;;;5051029;28;20033;-66
2022/12/29 08:32:28;;;;;;;11.07;2.17;;;10.30;99.90;;;;;;5020367;28;20399;-66
2022/12/29 08:34:54;;;;;;;6.88;1.73;;;10.30;99.90;;;;;;5023088;28;20033;-66
2022/12/29 08:37:20;;;;;;;7.28;1.80;;;10.30;99.90;;;;;;5047019;28;20093;-66
2022/12/29 08:39:45;;;;;;;9.88;2.13;;;10.30;99.90;;;;;;5036085;28;20049;-65
2022/12/29 08:42:11;;;;;;;8.77;2.10;;;10.30;99.90;;;;;;5026714;28;20479;-65
2022/12/29 08:44:36;;;;;;;7.30;2.17;;;10.20;99.90;;;;;;5039958;28;20040;-65
2022/12/29 08:47:02;;;;;;;7.10;2.00;;;10.30;99.90;;;;;;5041099;28;20149;-65
2022/12/29 08:49:28;;;;;;;5.63;2.20;;;10.30;99.90;;;;;;5012705;28;20045;-65
2022/12/29 08:51:53;;;;;;;9.82;2.50;;;10.30;99.90;;;;;;5018346;28;20095;-65
2022/12/29 08:54:19;;;;;;;7.25;1.55;;;10.30;99.90;;;;;;5030911;28;20033;-65
2022/12/29 08:56:44;;;;;;;7.55;1.90;;;10.30;99.90;;;;;;5031424;28;20487;-65
2022/12/29 08:59:10;;;;;;;10.07;2.42;;;10.20;99.90;;;;;;5016692;28;20108;-65
2022/12/29 09:01:36;;;;;;;7.38;1.83;;;10.20;99.90;;;;;;5031747;28;20042;-65
2022/12/29 09:04:02;;;;;;;8.18;2.17;;;10.20;99.90;;;;;;5048824;28;20106;-65
2022/12/29 09:06:28;;;;;;;5.50;2.08;;;10.20;99.90;;;;;;5016308;28;20068;-65
2022/12/29 09:08:56;;;;;;;7.10;2.00;;;10.10;99.90;;;;;;5031224;28;20407;-65
2022/12/29 09:11:24;;;;;;;9.55;1.90;;;10.10;99.90;;;;;;5032744;28;20658;-65
2022/12/29 09:13:51;;;;;;;4.65;1.83;;;10.20;99.90;;;;;;5041960;28;20120;-66
2022/12/29 09:16:18;;;;;;;5.45;1.98;;;10.20;99.90;;;;;;5046926;28;20047;-66
2022/12/29 09:18:44;;;;;;;10.15;2.33;;;10.20;99.90;;;;;;5032337;28;20515;-66
2022/12/29 09:21:11;;;;;;;11.23;2.05;;;10.10;99.90;;;;;;5011958;28;20041;-66
2022/12/29 09:23:37;;;;;;;10.73;2.40;;;10.10;99.90;;;;;;5023479;28;20044;-66
2022/12/29 09:26:03;;;;;;;8.95;2.63;;;10.00;99.90;;;;;;5043718;28;20029;-64
2022/12/29 09:28:30;;;;;;;9.27;2.25;;;9.90;99.90;;;;;;5049105;28;20044;-66
2022/12/29 09:30:56;;;;;;;7.25;2.03;;;10.00;99.90;;;;;;5038437;28;20036;-66
2022/12/29 09:33:22;;;;;;;8.05;2.20;;;9.90;99.90;;;;;;5025151;28;20049;-66
2022/12/29 09:35:56;;;;;;;9.10;2.40;;;10.00;99.90;;;;;;5030449;28;20033;-66
2022/12/29 09:38:23;;;;;;;8.23;2.67;;;10.00;99.90;;;;;;5033061;28;20069;-66
2022/12/29 09:40:55;;;;;;;7.05;2.22;;;10.00;99.90;;;;;;5018261;28;20045;-66
2022/12/29 09:43:56;;;;;;;9.15;2.33;;;10.00;99.90;;;;;;5030643;28;20065;-64
2022/12/29 09:46:31;;;;;;;7.03;2.17;;;10.00;99.90;;;;;;5029540;28;20041;-68
2022/12/29 09:49:24;;;;;;;7.65;2.63;;;10.10;99.90;;;;;;5025365;28;20034;-65
2022/12/29 09:51:56;;;;;;;6.78;2.45;;;10.10;99.90;;;;;;5033897;28;20040;-64
2022/12/29 09:54:37;;;;;;;10.18;2.20;;;10.20;99.90;;;;;;5029193;28;20034;-65
2022/12/29 09:57:02;;;;;;;7.82;2.30;;;10.20;99.90;;;;;;5024302;28;20036;-64
2022/12/29 09:59:40;;;;;;;5.97;1.90;;;10.30;99.90;;;;;;5033707;28;20029;-66
2022/12/29 10:02:43;;;;;;;9.85;2.22;;;10.40;99.90;;;;;;5034144;28;20523;-64
2022/12/29 10:05:31;;;;;;;7.47;2.00;;;10.40;99.90;;;;;;5017028;28;20029;-64
2022/12/29 10:08:05;;;;;;;11.93;2.60;;;10.40;99.90;;;;;;5021289;28;20025;-64
2022/12/29 10:10:42;;;;;;;5.90;1.80;;;10.60;99.90;;;;;;5042784;28;20075;-64
2022/12/29 10:13:18;;;;;;;6.97;1.92;;;10.60;99.90;;;;;;5016916;28;20499;-64
2022/12/29 10:15:49;;;;;;;10.07;2.22;;;10.60;99.90;;;;;;5032257;28;20052;-65
2022/12/29 10:18:42;;;;;;;7.82;1.70;;;10.60;99.90;;;;;;5034310;28;20045;-65
2022/12/29 10:21:08;;;;;;;8.30;2.08;;;10.50;99.90;;;;;;5030354;28;20037;-66
2022/12/29 10:23:42;;;;;;;8.60;1.80;;;10.50;99.90;;;;;;5027488;28;20041;-64
2022/12/29 10:26:37;;;;;;;8.57;2.28;;;10.50;99.90;;;;;;5033530;28;20381;-64
2022/12/29 10:29:19;;;;;;;6.28;1.80;;;10.50;99.90;;;;;;5020749;28;20049;-65
2022/12/29 10:31:54;;;;;;;11.18;2.33;;;10.50;99.90;;;;;;5025446;28;20037;-64
2022/12/29 10:34:37;;;;;;;9.55;2.38;;;10.50;99.90;;;;;;5018925;28;20057;-64
2022/12/29 10:37:11;;;;;;;7.93;2.00;;;10.40;99.90;;;;;;5025737;28;20033;-65
2022/12/29 10:39:45;;;;;;;11.23;2.97;;;10.30;99.90;;;;;;5028984;28;20067;-65
2022/12/29 10:42:25;;;;;;;7.57;2.20;;;10.20;99.90;;;;;;5034446;28;20510;-65
2022/12/29 10:44:51;;;;;;;6.78;2.25;;;10.10;99.90;;;;;;5027001;28;20038;-66
2022/12/29 10:47:23;;;;;;;6.30;2.00;;;10.00;99.90;;;;;;5025468;28;20060;-65
2022/12/29 10:49:49;;;;;;;4.95;1.80;;;10.10;99.90;;;;;;5027192;28;20125;-66
2022/12/29 10:52:18;;;;;;;8.10;2.10;;;10.10;99.90;;;;;;5033075;28;20048;-66
2022/12/29 10:55:07;;;;;;;6.57;2.00;;;10.10;99.90;;;;;;5033040;28;20045;-66
2022/12/29 10:57:36;;;;;;;7.45;2.20;;;10.20;99.90;;;;;;5021877;28;20048;-64
2022/12/29 11:00:12;;;;;;;11.20;2.55;;;10.00;99.90;;;;;;5032132;28;20052;-66
2022/12/29 11:02:41;;;;;;;8.65;2.17;;;10.00;99.90;;;;;;5040809;28;20481;-66
2022/12/29 11:05:13;;;;;;;7.68;2.10;;;10.00;99.90;;;;;;5027123;28;20048;-64
2022/12/29 11:07:39;;;;;;;10.20;2.35;;;9.90;99.90;;;;;;5041426;28;20037;-66
2022/12/29 11:10:43;;;;;;;6.53;2.10;;;9.90;99.90;;;;;;5015616;28;20060;-66
2022/12/29 11:13:25;;;;;;;12.18;2.35;;;9.90;99.90;;;;;;5019583;28;20081;-64
2022/12/29 11:15:51;;;;;;;8.52;2.22;;;9.80;99.90;;;;;;5028125;28;20042;-64
2022/12/29 11:18:21;;;;;;;7.55;2.50;;;9.90;99.90;;;;;;5032473;28;20479;-66
2022/12/29 11:20:48;;;;;;;9.95;2.58;;;9.90;99.90;;;;;;5025174;28;20045;-64
2022/12/29 11:23:38;;;;;;;6.18;2.22;;;9.90;99.90;;;;;;5033400;28;20037;-65
2022/12/29 11:26:25;;;;;;;7.60;2.50;;;9.90;99.90;;;;;;5033028;28;20037;-65
2022/12/29 11:29:15;;;;;;;9.70;2.30;;;9.90;99.90;;;;;;5021205;28;20037;-65
2022/12/29 11:31:50;;;;;;;12.07;2.50;;;9.80;99.90;;;;;;5030314;28;20049;-66
2022/12/29 11:34:31;;;;;;;8.35;2.33;;;9.80;99.90;;;;;;5047194;28;20037;-66
2022/12/29 11:37:08;;;;;;;10.23;2.40;;;9.80;99.90;;;;;;5031577;28;20044;-66
2022/12/29 11:39:42;;;;;;;6.97;2.20;;;9.90;99.90;;;;;;5021210;28;20037;-65
2022/12/29 11:42:15;;;;;;;5.75;2.22;;;9.90;99.90;;;;;;5026448;28;20045;-67
2022/12/29 11:44:49;;;;;;;6.93;2.20;;;9.90;99.90;;;;;;5023005;28;20523;-63
2022/12/29 11:47:30;;;;;;;7.60;2.20;;;9.90;99.90;;;;;;5026136;28;20048;-66
2022/12/29 11:49:59;;;;;;;12.60;3.38;;;10.00;99.90;;;;;;5040045;28;20040;-66
2022/12/29 11:52:29;;;;;;;8.88;2.30;;;10.00;99.90;;;;;;5043544;28;20049;-66
2022/12/29 11:54:56;;;;;;;6.40;2.00;;;10.10;99.90;;;;;;5028112;28;20651;-66
2022/12/29 11:57:23;;;;;;;7.40;2.30;;;10.20;99.90;;;;;;5031850;28;20045;-65
2022/12/29 11:59:54;;;;;;;7.82;2.50;;;10.30;99.90;;;;;;5031867;28;20510;-67
2022/12/29 12:02:23;;;;;;;8.65;2.47;;;10.40;99.90;;;;;;5028101;28;20077;-68
2022/12/29 12:04:53;;;;;;;7.97;2.50;;;10.50;99.90;;;;;;5035201;28;20081;-67
2022/12/29 12:07:31;;;;;;;8.43;2.38;;;10.60;99.90;;;;;;5047637;28;20112;-70
2022/12/29 12:10:01;;;;;;;5.65;2.20;;;10.70;99.90;;;;;;5032380;28;20030;-75
2022/12/29 12:12:48;;;;;;;9.13;2.40;;;10.60;99.90;;;;;;5027914;28;20180;-73
2022/12/29 12:15:22;;;;;;;11.43;2.53;;;10.60;99.90;;;;;;5016855;28;20795;-72
2022/12/29 12:18:15;;;;;;;11.48;2.50;;;10.50;99.90;;;;;;5042107;28;20091;-70
2022/12/29 12:20:44;;;;;;;9.55;2.60;;;10.40;99.90;;;;;;5027460;28;20139;-70
2022/12/29 12:23:36;;;;;;;10.40;2.75;;;10.40;99.90;;;;;;5044854;28;20037;-70
2022/12/29 12:26:13;;;;;;;11.18;2.75;;;10.50;99.90;;;;;;5035604;28;20038;-69
2022/12/29 12:28:51;;;;;;;10.75;3.15;;;10.50;99.90;;;;;;5021290;28;20038;-72
2022/12/29 12:31:49;;;;;;;13.85;2.75;;;10.50;99.90;;;;;;5036920;28;20087;-71
2022/12/29 12:34:42;;;;;;;10.77;3.75;;;10.60;99.90;;;;;;5021839;28;20124;-72
2022/12/29 12:37:30;;;;;;;10.98;2.90;;;10.80;99.90;;;;;;5001943;28;20050;-71
2022/12/29 12:40:30;;;;;;;7.03;2.40;;;10.80;99.90;;;;;;5005410;28;20050;-73
2022/12/29 12:43:08;;;;;;;14.60;3.35;;;10.90;99.90;;;;;;5035132;28;20076;-72
2022/12/29 12:46:00;;;;;;;10.05;2.70;;;10.90;99.90;;;;;;5020576;28;20499;-71
2022/12/29 12:48:52;;;;;;;13.52;3.28;;;10.90;99.90;;;;;;5046431;28;20060;-69
2022/12/29 12:51:28;;;;;;;;;;;10.80;99.90;;;;;;5019723;28;20060;-70
2022/12/29 12:54:19;;;;;;;11.30;2.80;;;10.80;99.90;;;;;;5026845;28;19917;-71
2022/12/29 12:56:54;;;;;;;10.40;2.70;;;10.80;99.90;;;;;;5025520;28;20042;-69
2022/12/29 12:59:49;;;;;;;14.02;2.95;;;10.70;99.90;;;;;;5008598;28;20392;-71
2022/12/29 13:02:29;;;;;;;17.10;2.85;;;10.60;99.90;;;;;;5020278;28;20047;-69
2022/12/29 13:05:16;;;;;;;11.17;2.70;;;10.60;99.90;;;;;;5033060;28;20034;-71
2022/12/29 13:08:06;;;;;;;14.85;2.97;;;10.50;99.90;;;;;;5037903;28;20067;-70
2022/12/29 13:10:57;;;;;;;15.65;3.63;;;10.40;99.90;;;;;;5026187;28;20113;-71
2022/12/29 13:13:31;;;;;;;9.65;2.50;;;10.30;99.90;;;;;;5008964;28;20054;-70
2022/12/29 13:16:31;;;;;;;10.95;2.70;;;10.30;99.90;;;;;;5027285;28;20046;-70
2022/12/29 13:19:14;;;;;;;9.68;2.25;;;10.30;99.90;;;;;;4984474;28;20049;-73
2022/12/29 13:21:53;;;;;;;13.07;2.60;;;10.30;99.90;;;;;;5014506;28;20514;-70
2022/12/29 13:24:36;;;;;;;9.65;2.42;;;10.30;99.90;;;;;;5034983;28;20096;-70
2022/12/29 13:27:14;;;;;;;11.90;2.17;;;10.30;99.90;;;;;;5027581;28;20603;-73
2022/12/29 13:29:46;;;;;;;12.65;2.40;;;10.30;99.90;;;;;;5032359;28;20557;-73
2022/12/29 13:32:22;;;;;;;7.75;2.38;;;10.30;99.90;;;;;;5034254;28;20041;-71
2022/12/29 13:35:04;;;;;;;17.73;3.08;;;10.20;99.90;;;;;;5029178;28;20041;-70
2022/12/29 13:37:32;;;;;;;12.52;2.85;;;10.10;99.90;;;;;;5016454;28;20495;-71
2022/12/29 13:40:03;;;;;;;11.15;2.70;;;10.10;99.90;;;;;;5034698;28;20376;-71
2022/12/29 13:42:29;;;;;;;12.60;2.80;;;10.00;99.90;;;;;;5024025;28;20092;-68